createdAt,value
2022-09-23T00:01:03.721Z,12.38
2022-09-23T00:03:31.866Z,13.35
2022-09-23T00:06:04.266Z,10.60
2022-09-23T00:08:31.195Z,11.90
2022-09-23T00:10:57.913Z,11.73
2022-09-23T00:13:25.464Z,11.75
2022-09-23T00:15:52.180Z,12.38
2022-09-23T00:18:20.554Z,11.82
2022-09-23T00:20:47.428Z,11.23
2022-09-23T00:23:13.870Z,11.55
2022-09-23T00:25:40.414Z,13.18
2022-09-23T00:28:07.042Z,11.75
2022-09-23T00:30:34.051Z,12.35
2022-09-23T00:33:00.931Z,12.00
2022-09-23T00:35:27.709Z,10.90
2022-09-23T00:37:54.154Z,10.93
2022-09-23T00:40:20.856Z,10.73
2022-09-23T00:42:52.087Z,10.95
2022-09-23T00:45:19.163Z,11.93
2022-09-23T00:47:55.217Z,12.48
2022-09-23T00:50:30.257Z,12.43
2022-09-23T00:52:59.374Z,9.48
2022-09-23T00:55:31.791Z,11.18
2022-09-23T00:58:01.368Z,9.70
2022-09-23T01:00:27.899Z,10.73
2022-09-23T01:02:55.410Z,10.15
2022-09-23T01:05:22.109Z,11.02
2022-09-23T01:07:49.977Z,12.52
2022-09-23T01:10:18.316Z,12.63
2022-09-23T01:13:12.283Z,10.48
2022-09-23T01:15:48.453Z,10.45
2022-09-23T01:18:29.737Z,11.60
2022-09-23T01:21:06.236Z,9.60
2022-09-23T01:23:54.185Z,11.50
2022-09-23T01:26:48.658Z,10.77
2022-09-23T01:29:46.048Z,10.77
2022-09-23T01:32:41.030Z,11.15
2022-09-23T01:35:26.649Z,10.63
2022-09-23T01:38:06.449Z,12.40
2022-09-23T01:41:12.510Z,13.13
2022-09-23T01:44:02.782Z,11.20
2022-09-23T01:46:54.501Z,11.23
2022-09-23T01:49:43.727Z,11.48
2022-09-23T01:52:18.608Z,12.35
2022-09-23T01:55:20.945Z,11.35
2022-09-23T01:57:55.457Z,13.05
2022-09-23T02:00:24.042Z,12.45
2022-09-23T02:02:59.390Z,11.43
2022-09-23T02:05:39.930Z,11.93
2022-09-23T02:08:16.862Z,12.93
2022-09-23T02:10:52.070Z,12.20
2022-09-23T02:13:34.376Z,12.05
2022-09-23T02:16:08.598Z,11.38
2022-09-23T02:18:46.183Z,13.35
2022-09-23T02:21:15.672Z,11.95
2022-09-23T02:23:52.950Z,12.95
2022-09-23T02:26:31.770Z,14.05
2022-09-23T02:29:30.337Z,13.15
2022-09-23T02:32:25.059Z,13.27
2022-09-23T02:35:18.043Z,12.23
2022-09-23T02:38:02.760Z,12.98
2022-09-23T02:40:51.057Z,13.15
2022-09-23T02:43:32.128Z,14.55
2022-09-23T02:45:58.828Z,15.27
2022-09-23T02:48:32.110Z,12.95
2022-09-23T02:51:02.446Z,13.85
2022-09-23T02:53:30.457Z,13.48
2022-09-23T02:55:56.904Z,13.85
2022-09-23T02:58:23.475Z,11.98
2022-09-23T03:01:19.445Z,12.60
2022-09-23T03:04:05.400Z,12.98
2022-09-23T03:07:03.783Z,12.55
2022-09-23T03:09:38.362Z,14.25
2022-09-23T03:12:32.341Z,13.02
2022-09-23T03:15:09.665Z,16.90
2022-09-23T03:18:12.946Z,13.38
2022-09-23T03:20:50.308Z,15.05
2022-09-23T03:23:25.369Z,15.05
2022-09-23T03:25:54.994Z,13.52
2022-09-23T03:28:23.200Z,13.38
2022-09-23T03:30:52.113Z,14.15
2022-09-23T03:33:26.752Z,14.48
2022-09-23T03:36:18.186Z,12.45
2022-09-23T03:38:48.594Z,12.68
2022-09-23T03:41:23.178Z,13.23
2022-09-23T03:43:49.841Z,14.32
2022-09-23T03:46:17.663Z,12.55
2022-09-23T03:48:45.506Z,14.75
2022-09-23T03:51:22.756Z,14.13
2022-09-23T03:53:52.706Z,14.23
2022-09-23T03:56:19.160Z,12.70
2022-09-23T03:58:46.608Z,15.52
2022-09-23T04:01:14.749Z,14.93
2022-09-23T04:03:41.807Z,17.45
2022-09-23T04:06:08.665Z,13.30
2022-09-23T04:08:35.245Z,17.30
2022-09-23T04:11:03.638Z,16.15
2022-09-23T04:13:31.722Z,16.40
2022-09-23T04:15:58.417Z,13.35
2022-09-23T04:18:25.160Z,15.00
2022-09-23T04:20:51.701Z,14.35
2022-09-23T04:23:18.185Z,14.18
2022-09-23T04:25:49.106Z,16.42
2022-09-23T04:28:16.034Z,12.93
2022-09-23T04:30:43.700Z,13.32
2022-09-23T04:33:11.248Z,14.77
2022-09-23T04:35:43.582Z,17.00
2022-09-23T04:38:13.298Z,16.00
2022-09-23T04:40:40.018Z,16.40
2022-09-23T04:43:10.536Z,15.70
2022-09-23T04:45:39.386Z,16.27
2022-09-23T04:48:05.834Z,16.05
2022-09-23T04:50:33.945Z,15.18
2022-09-23T04:53:00.599Z,17.48
2022-09-23T04:55:27.176Z,15.88
2022-09-23T04:57:53.742Z,17.23
2022-09-23T05:00:21.163Z,16.20
2022-09-23T05:02:49.690Z,14.25
2022-09-23T05:05:22.301Z,13.23
2022-09-23T05:07:49.159Z,14.23
2022-09-23T05:10:16.634Z,16.67
2022-09-23T05:12:43.754Z,15.35
2022-09-23T05:15:10.235Z,13.27
2022-09-23T05:17:37.403Z,17.70
2022-09-23T05:20:05.345Z,15.45
2022-09-23T05:22:32.025Z,16.33
2022-09-23T05:25:00.291Z,15.23
2022-09-23T05:27:27.245Z,16.15
2022-09-23T05:29:53.866Z,16.60
2022-09-23T05:32:21.341Z,17.65
2022-09-23T05:34:47.867Z,17.23
2022-09-23T05:37:14.318Z,15.57
2022-09-23T05:39:40.790Z,13.38
2022-09-23T05:42:07.362Z,16.55
2022-09-23T05:44:33.905Z,14.93
2022-09-23T05:47:00.452Z,15.25
2022-09-23T05:49:48.373Z,17.48
2022-09-23T05:52:13.538Z,14.45
2022-09-23T05:54:40.843Z,17.17
2022-09-23T05:57:07.339Z,16.48
2022-09-23T05:59:33.876Z,19.40
2022-09-23T06:02:01.864Z,14.48
2022-09-23T06:04:29.990Z,17.85
2022-09-23T06:07:00.268Z,16.88
2022-09-23T06:09:34.148Z,15.13
2022-09-23T06:12:03.018Z,15.75
2022-09-23T06:14:29.569Z,18.02
2022-09-23T06:16:56.122Z,15.23
2022-09-23T06:19:22.565Z,16.70
2022-09-23T06:21:49.606Z,15.93
2022-09-23T06:24:20.562Z,17.52
2022-09-23T06:26:49.050Z,16.70
2022-09-23T06:29:15.494Z,15.48
2022-09-23T06:31:43.535Z,19.50
2022-09-23T06:34:16.412Z,21.73
2022-09-23T06:36:45.752Z,16.95
2022-09-23T06:39:13.998Z,17.58
2022-09-23T06:41:40.540Z,17.92
2022-09-23T06:44:07.219Z,18.88
2022-09-23T06:46:34.036Z,16.23
2022-09-23T06:49:02.058Z,17.70
2022-09-23T06:51:28.545Z,15.57
2022-09-23T06:53:55.645Z,15.23
2022-09-23T06:56:23.016Z,18.45
2022-09-23T06:58:51.685Z,18.92
2022-09-23T07:01:19.783Z,16.85
2022-09-23T07:03:48.181Z,18.13
2022-09-23T07:06:15.119Z,15.65
2022-09-23T07:08:47.220Z,17.05
2022-09-23T07:11:15.439Z,21.63
2022-09-23T07:13:42.655Z,18.45
2022-09-23T07:16:11.126Z,18.52
2022-09-23T07:18:38.208Z,18.10
2022-09-23T07:21:15.353Z,17.30
2022-09-23T07:23:43.320Z,18.92
2022-09-23T07:26:10.052Z,18.27
2022-09-23T07:28:37.166Z,19.42
2022-09-23T07:31:09.505Z,19.05
2022-09-23T07:33:37.865Z,16.40
2022-09-23T07:36:10.085Z,16.50
2022-09-23T07:38:41.502Z,18.38
2022-09-23T07:41:13.018Z,19.73
2022-09-23T07:43:39.727Z,21.65
2022-09-23T07:46:17.831Z,19.50
2022-09-23T07:48:45.992Z,17.02
2022-09-23T07:51:18.524Z,21.83
2022-09-23T07:53:50.561Z,19.20
2022-09-23T07:56:21.976Z,19.90
2022-09-23T07:58:59.939Z,22.90
2022-09-23T08:01:29.466Z,19.80
2022-09-23T08:04:03.249Z,22.10
2022-09-23T08:06:30.125Z,19.85
2022-09-23T08:09:00.897Z,20.38
2022-09-23T08:11:27.989Z,26.88
2022-09-23T08:13:54.979Z,21.25
2022-09-23T08:16:22.207Z,20.13
2022-09-23T08:18:49.416Z,20.02
2022-09-23T08:21:22.839Z,20.00
2022-09-23T08:23:49.992Z,20.83
2022-09-23T08:26:21.473Z,24.52
2022-09-23T08:28:48.989Z,23.15
2022-09-23T08:31:15.581Z,19.67
2022-09-23T08:33:42.173Z,22.25
2022-09-23T08:36:08.933Z,21.85
2022-09-23T08:38:35.758Z,22.42
2022-09-23T08:41:36.343Z,20.55
2022-09-23T08:44:27.003Z,17.73
2022-09-23T08:47:18.876Z,21.15
2022-09-23T08:49:57.499Z,23.30
2022-09-23T08:52:49.166Z,21.40
2022-09-23T08:55:16.314Z,23.60
2022-09-23T08:58:23.934Z,20.02
2022-09-23T09:00:54.347Z,20.48
2022-09-23T09:03:31.417Z,22.42
2022-09-23T09:05:58.917Z,19.98
2022-09-23T09:08:32.595Z,23.65
2022-09-23T09:11:00.014Z,20.98
2022-09-23T09:13:43.921Z,20.10
2022-09-23T09:17:01.171Z,22.77
2022-09-23T09:19:47.397Z,20.52
2022-09-23T09:22:19.865Z,20.17
2022-09-23T09:24:49.178Z,17.65
2022-09-23T09:27:15.645Z,17.25
2022-09-23T09:29:50.002Z,20.17
2022-09-23T09:32:29.433Z,21.48
2022-09-23T09:35:05.593Z,19.67
2022-09-23T09:37:44.528Z,17.83
2022-09-23T09:40:20.197Z,18.60
2022-09-23T09:42:49.446Z,17.45
2022-09-23T09:45:59.084Z,17.85
2022-09-23T09:48:41.733Z,16.80
2022-09-23T09:51:21.498Z,17.80
2022-09-23T09:53:52.045Z,17.83
2022-09-23T10:01:23.599Z,17.27
2022-09-23T10:04:03.672Z,20.40
2022-09-23T10:06:35.891Z,16.98
2022-09-23T10:09:02.439Z,17.85
2022-09-23T10:11:30.070Z,16.58
2022-09-23T10:14:00.264Z,14.43
2022-09-23T10:16:27.766Z,14.13
2022-09-23T10:18:57.028Z,13.18
2022-09-23T10:21:27.980Z,14.07
2022-09-23T10:24:01.584Z,13.30
2022-09-23T10:26:32.995Z,15.60
2022-09-23T10:29:05.055Z,13.10
2022-09-23T10:31:33.583Z,12.88
2022-09-23T10:34:02.070Z,12.45
2022-09-23T10:36:31.390Z,14.63
2022-09-23T10:39:20.019Z,12.80
2022-09-23T10:42:17.972Z,14.05
2022-09-23T10:45:22.061Z,10.27
2022-09-23T10:47:58.907Z,13.32
2022-09-23T10:50:42.171Z,13.73
2022-09-23T10:53:42.960Z,12.43
2022-09-23T10:59:06.636Z,11.32
2022-09-23T11:01:49.103Z,12.93
2022-09-23T11:04:40.740Z,12.85
2022-09-23T11:07:10.555Z,16.10
2022-09-23T11:10:02.561Z,12.35
2022-09-23T11:12:56.613Z,16.23
2022-09-23T11:15:39.431Z,13.40
2022-09-23T11:18:31.546Z,14.70
2022-09-23T11:21:07.177Z,14.38
2022-09-23T11:24:04.968Z,12.45
2022-09-23T11:27:10.583Z,11.80
2022-09-23T11:30:07.458Z,12.75
2022-09-23T11:32:55.568Z,13.77
2022-09-23T11:35:35.760Z,13.90
2022-09-23T11:38:11.180Z,11.75
2022-09-23T11:40:45.638Z,12.82
2022-09-23T11:43:23.492Z,13.05
2022-09-23T11:46:25.673Z,11.38
2022-09-23T11:49:05.038Z,15.52
2022-09-23T11:51:43.777Z,13.10
2022-09-23T11:54:44.240Z,14.65
2022-09-23T11:57:20.931Z,13.93
2022-09-23T11:59:55.038Z,12.80
2022-09-23T12:03:01.678Z,14.20
2022-09-23T12:05:39.789Z,15.15
2022-09-23T12:08:06.505Z,12.80
2022-09-23T12:10:55.994Z,12.73
2022-09-23T12:13:56.514Z,13.32
2022-09-23T12:16:28.393Z,14.40
2022-09-23T12:19:01.167Z,12.38
2022-09-23T12:22:21.590Z,15.52
2022-09-23T12:24:57.968Z,11.65
2022-09-23T12:27:37.972Z,12.43
2022-09-23T12:30:26.952Z,11.98
2022-09-23T12:33:07.762Z,12.10
2022-09-23T12:35:41.510Z,16.38
2022-09-23T12:38:20.249Z,13.90
2022-09-23T12:40:47.804Z,9.85
2022-09-23T12:43:31.427Z,14.02
2022-09-23T12:46:23.469Z,14.60
2022-09-23T12:49:02.078Z,15.15
2022-09-23T12:51:35.092Z,10.68
2022-09-23T12:54:04.514Z,13.13
2022-09-23T12:56:34.033Z,13.65
2022-09-23T12:59:15.965Z,11.35
2022-09-23T13:01:43.491Z,14.63
2022-09-23T13:04:51.030Z,12.98
2022-09-23T13:07:23.473Z,12.85
2022-09-23T13:09:52.892Z,15.13
2022-09-23T13:12:32.150Z,14.93
2022-09-23T13:15:03.647Z,12.93
2022-09-23T13:17:32.474Z,10.02
2022-09-23T13:20:05.256Z,9.52
2022-09-23T13:22:51.991Z,9.05
2022-09-23T13:25:24.382Z,6.88
2022-09-23T13:27:55.335Z,8.82
2022-09-23T13:30:26.626Z,7.78
2022-09-23T13:33:18.065Z,7.43
2022-09-23T13:35:53.485Z,9.75
2022-09-23T13:38:26.097Z,10.05
2022-09-23T13:40:55.998Z,10.25
2022-09-23T13:43:27.578Z,7.75
2022-09-23T13:45:55.201Z,8.55
2022-09-23T13:48:25.575Z,11.07
2022-09-23T13:50:56.073Z,10.30
2022-09-23T13:56:01.958Z,7.35
2022-09-23T13:58:30.737Z,10.25
2022-09-23T14:00:58.103Z,8.48
2022-09-23T14:03:29.374Z,9.27
2022-09-23T14:06:12.909Z,8.85
2022-09-23T14:11:08.019Z,7.47
2022-09-23T14:13:42.001Z,8.77
2022-09-23T14:16:12.615Z,7.18
2022-09-23T14:18:42.909Z,7.85
2022-09-23T14:21:35.333Z,5.97
2022-09-23T14:24:30.115Z,7.78
2022-09-23T14:27:00.784Z,7.82
2022-09-23T14:29:31.712Z,7.35
2022-09-23T14:32:07.624Z,7.88
2022-09-23T14:34:46.657Z,7.75
2022-09-23T14:37:47.957Z,10.02
2022-09-23T14:40:20.734Z,11.30
2022-09-23T14:42:56.672Z,9.27
2022-09-23T14:45:27.200Z,12.70
2022-09-23T14:50:40.554Z,9.25
2022-09-23T14:53:40.651Z,11.30
2022-09-23T14:56:07.064Z,10.40
2022-09-23T14:58:52.821Z,13.85
2022-09-23T15:01:30.547Z,9.55
2022-09-23T15:04:09.215Z,11.05
2022-09-23T15:06:38.271Z,12.85
2022-09-23T15:09:06.823Z,9.65
2022-09-23T15:11:36.164Z,11.55
2022-09-23T15:14:26.338Z,12.85
2022-09-23T15:16:51.407Z,13.85
2022-09-23T15:19:20.791Z,12.85
2022-09-23T15:21:51.463Z,11.43
2022-09-23T15:24:41.114Z,12.18
2022-09-23T15:27:34.780Z,13.30
2022-09-23T15:30:17.448Z,12.73
2022-09-23T15:32:47.308Z,9.35
2022-09-23T15:35:21.180Z,9.30
2022-09-23T15:37:50.031Z,10.07
2022-09-23T15:40:29.099Z,10.93
2022-09-23T15:43:07.462Z,10.90
2022-09-23T15:45:36.995Z,12.18
2022-09-23T15:48:11.129Z,11.87
2022-09-23T15:50:38.297Z,11.07
2022-09-23T15:53:06.422Z,11.10
2022-09-23T15:55:33.649Z,12.70
2022-09-23T15:58:00.705Z,11.90
2022-09-23T16:00:27.411Z,14.63
2022-09-23T16:02:54.090Z,17.45
2022-09-23T16:05:23.361Z,12.63
2022-09-23T16:07:52.294Z,12.15
2022-09-23T16:10:20.951Z,12.77
2022-09-23T16:12:48.485Z,13.38
2022-09-23T16:15:18.965Z,10.98
2022-09-23T16:20:15.340Z,12.13
2022-09-23T16:22:41.835Z,13.88
2022-09-23T16:25:11.978Z,13.07
2022-09-23T16:27:40.357Z,13.32
2022-09-23T16:30:07.973Z,12.43
2022-09-23T16:32:34.551Z,14.32
2022-09-23T16:35:01.093Z,13.98
2022-09-23T16:37:27.692Z,18.05
2022-09-23T16:39:54.861Z,16.30
2022-09-23T16:42:21.857Z,21.40
2022-09-23T16:44:48.354Z,18.08
2022-09-23T16:47:16.036Z,16.30
2022-09-23T16:49:42.571Z,15.55
2022-09-23T16:52:13.950Z,15.18
2022-09-23T16:54:42.242Z,16.65
2022-09-23T16:57:09.644Z,15.40
2022-09-23T16:59:54.454Z,15.60
2022-09-23T17:02:39.693Z,16.90
2022-09-23T17:05:06.512Z,15.32
2022-09-23T17:07:33.044Z,16.65
2022-09-23T17:09:59.848Z,19.83
2022-09-23T17:12:32.301Z,18.25
2022-09-23T17:14:59.196Z,19.48
2022-09-23T17:17:25.926Z,15.57
2022-09-23T17:19:52.389Z,21.52
2022-09-23T17:22:22.215Z,19.27
2022-09-23T17:24:48.801Z,22.17
2022-09-23T17:27:17.114Z,16.90
2022-09-23T17:29:44.473Z,25.08
2022-09-23T17:32:11.291Z,18.40
2022-09-23T17:34:37.861Z,17.80
2022-09-23T17:37:04.415Z,20.77
2022-09-23T17:39:31.672Z,20.65
2022-09-23T17:41:58.565Z,18.77
2022-09-23T17:44:26.791Z,23.35
2022-09-23T17:46:53.417Z,22.10
2022-09-23T17:49:24.426Z,21.85
2022-09-23T17:51:50.986Z,23.25
2022-09-23T17:54:17.479Z,21.13
2022-09-23T17:56:43.995Z,22.70
2022-09-23T17:59:14.977Z,21.02
2022-09-23T18:01:41.711Z,25.48
2022-09-23T18:04:08.323Z,23.77
2022-09-23T18:06:37.017Z,23.90
2022-09-23T18:09:05.578Z,22.48
2022-09-23T18:11:39.399Z,22.40
2022-09-23T18:14:26.196Z,23.13
2022-09-23T18:16:53.698Z,22.95
2022-09-23T18:19:22.505Z,23.85
2022-09-23T18:21:51.416Z,21.88
2022-09-23T18:24:31.922Z,23.85
2022-09-23T18:27:01.860Z,21.13
2022-09-23T18:29:28.581Z,23.60
2022-09-23T18:31:55.476Z,23.70
2022-09-23T18:34:22.608Z,27.20
2022-09-23T18:36:49.121Z,25.35
2022-09-23T18:39:15.662Z,25.95
2022-09-23T18:41:42.438Z,27.75
2022-09-23T18:44:09.617Z,26.10
2022-09-23T18:46:36.368Z,23.48
2022-09-23T18:49:22.174Z,23.75
2022-09-23T18:51:51.806Z,29.50
2022-09-23T18:54:19.648Z,28.90
2022-09-23T18:56:46.965Z,21.98
2022-09-23T18:59:19.591Z,23.15
2022-09-23T19:01:48.673Z,22.63
2022-09-23T19:04:20.133Z,24.88
2022-09-23T19:06:46.880Z,24.15
2022-09-23T19:09:15.345Z,28.67
2022-09-23T19:11:42.894Z,29.17
2022-09-23T19:14:11.544Z,25.45
2022-09-23T19:16:39.688Z,27.65
2022-09-23T19:19:06.744Z,28.05
2022-09-23T19:21:33.852Z,25.25
2022-09-23T19:24:05.847Z,27.30
2022-09-23T19:26:40.639Z,26.88
2022-09-23T19:29:08.792Z,32.20
2022-09-23T19:31:41.789Z,25.13
2022-09-23T19:34:15.965Z,28.33
2022-09-23T19:36:45.881Z,26.67
2022-09-23T19:39:17.334Z,23.33
2022-09-23T19:41:44.742Z,28.00
2022-09-23T19:44:11.808Z,30.42
2022-09-23T19:46:40.928Z,24.88
2022-09-23T19:49:08.143Z,27.95
2022-09-23T19:51:35.361Z,28.60
2022-09-23T19:54:03.650Z,31.27
2022-09-23T19:56:31.878Z,24.73
2022-09-23T19:58:59.263Z,29.30
2022-09-23T20:01:27.425Z,29.35
2022-09-23T20:03:53.906Z,29.38
2022-09-23T20:06:21.213Z,28.80
2022-09-23T20:08:49.553Z,28.48
2022-09-23T20:11:26.155Z,30.85
2022-09-23T20:14:04.500Z,26.13
2022-09-23T20:16:33.976Z,26.48
2022-09-23T20:19:01.286Z,26.42
2022-09-23T20:21:29.366Z,27.10
2022-09-23T20:23:56.833Z,28.05
2022-09-23T20:26:41.641Z,24.23
2022-09-23T20:29:09.087Z,25.30
2022-09-23T20:31:35.840Z,23.85
2022-09-23T20:34:05.810Z,24.83
2022-09-23T20:36:33.963Z,22.33
2022-09-23T20:39:03.118Z,23.52
2022-09-23T20:41:31.640Z,25.05
2022-09-23T20:44:02.701Z,22.92
2022-09-23T20:46:30.350Z,23.10
2022-09-23T20:48:57.087Z,23.67
2022-09-23T20:51:25.081Z,24.90
2022-09-23T20:53:52.897Z,24.50
2022-09-23T20:56:23.060Z,23.77
2022-09-23T20:58:50.795Z,24.85
2022-09-23T21:01:17.589Z,24.13
2022-09-23T21:03:46.416Z,23.58
2022-09-23T21:06:14.885Z,23.60
2022-09-23T21:08:42.262Z,22.17
2022-09-23T21:11:15.031Z,25.35
2022-09-23T21:13:49.089Z,25.90
2022-09-23T21:16:17.181Z,24.05
2022-09-23T21:18:44.577Z,22.27
2022-09-23T21:21:12.274Z,24.33
2022-09-23T21:23:40.092Z,23.83
2022-09-23T21:26:09.305Z,27.08
2022-09-23T21:28:41.173Z,21.88
2022-09-23T21:31:10.775Z,26.33
2022-09-23T21:33:37.715Z,23.93
2022-09-23T21:36:06.508Z,26.08
2022-09-23T21:38:37.097Z,24.77
2022-09-23T21:43:33.831Z,23.83
2022-09-23T21:46:05.926Z,22.77
2022-09-23T21:48:34.417Z,26.83
2022-09-23T21:51:03.849Z,25.13
2022-09-23T21:53:31.670Z,24.33
2022-09-23T21:56:15.712Z,27.55
2022-09-23T21:58:45.779Z,25.65
2022-09-23T22:01:13.917Z,23.50
2022-09-23T22:03:41.358Z,27.75
2022-09-23T22:06:11.173Z,23.85
2022-09-23T22:08:40.539Z,24.60
2022-09-23T22:11:30.032Z,29.85
2022-09-23T22:13:57.840Z,29.30
2022-09-23T22:16:24.606Z,28.85
2022-09-23T22:18:55.248Z,25.30
2022-09-23T22:23:54.100Z,26.23
2022-09-23T22:26:20.635Z,27.08
2022-09-23T22:29:05.721Z,28.70
2022-09-23T22:31:51.052Z,29.27
2022-09-23T22:34:47.537Z,26.88
2022-09-23T22:37:06.691Z,34.13
2022-09-23T22:39:33.454Z,28.88
2022-09-23T22:42:00.152Z,30.15
2022-09-23T22:44:26.807Z,28.98
2022-09-23T22:46:53.749Z,31.48
2022-09-23T22:49:20.422Z,29.70
2022-09-23T22:51:47.163Z,32.92
2022-09-23T22:54:13.785Z,32.05
2022-09-23T22:56:40.383Z,28.40
2022-09-23T22:59:08.759Z,32.38
2022-09-23T23:01:35.742Z,32.47
2022-09-23T23:04:02.467Z,33.67
2022-09-23T23:06:35.907Z,31.13
2022-09-23T23:09:19.014Z,36.17
2022-09-23T23:11:45.720Z,32.38
2022-09-23T23:14:14.268Z,33.60
2022-09-23T23:16:40.852Z,36.30
2022-09-23T23:19:09.974Z,32.15
2022-09-23T23:21:37.122Z,34.63
2022-09-23T23:24:04.858Z,33.60
2022-09-23T23:26:33.149Z,35.03
2022-09-23T23:29:00.737Z,31.65
2022-09-23T23:31:28.860Z,29.45
2022-09-23T23:33:55.398Z,29.48
2022-09-23T23:36:23.206Z,29.85
2022-09-23T23:38:54.206Z,26.85
2022-09-23T23:41:22.626Z,33.30
2022-09-23T23:43:55.348Z,26.35
2022-09-23T23:46:25.425Z,27.83
2022-09-23T23:48:53.303Z,28.48
2022-09-23T23:51:20.797Z,25.38
2022-09-23T23:53:48.257Z,29.55
2022-09-23T23:56:19.753Z,28.85
2022-09-23T23:58:46.556Z,27.02
